Time;durP1;ratioP1;P1;durP2;ratioP2;P2;SDS_P1;SDS_P2;PMS_P1;PMS_P2;Temp;Humidity;BMP_temperature;BMP_pressure;BME280_temperature;BME280_humidity;BME280_pressure;Samples;Min_cycle;Max_cycle;Signal;HPM_P1;HPM_P2
2021/09/28 00:02:20;;;;;;;15.18;4.10;;;;;;;15.63;66.09;100324.13;6096212;23;20097;-77
2021/09/28 00:04:49;;;;;;;16.63;3.95;;;;;;;15.60;66.52;100329.66;6096066;23;20023;-77
2021/09/28 00:07:16;;;;;;;5.55;3.67;;;;;;;15.59;66.33;100333.25;6097442;23;20052;-77
2021/09/28 00:09:43;;;;;;;8.18;3.67;;;;;;;15.56;66.36;100336.13;6097937;23;20077;-77
2021/09/28 00:12:13;;;;;;;8.88;4.47;;;;;;;15.53;66.90;100331.03;6098158;23;20101;-77
2021/09/28 00:14:40;;;;;;;10.27;4.30;;;;;;;15.53;66.60;100333.66;6097617;23;20106;-77
2021/09/28 00:17:09;;;;;;;6.97;4.45;;;;;;;15.49;66.83;100333.91;6097735;23;20102;-77
2021/09/28 00:19:36;;;;;;;8.10;4.72;;;;;;;15.48;66.74;100334.84;6098085;23;20121;-78
2021/09/28 00:22:12;;;;;;;8.88;4.30;;;;;;;15.44;67.43;100338.66;6098028;23;20091;-77
2021/09/28 00:24:39;;;;;;;7.82;4.93;;;;;;;15.47;66.78;100335.78;6098903;23;20019;-77
2021/09/28 00:27:06;;;;;;;8.73;5.05;;;;;;;15.46;67.02;100331.44;6097986;23;20341;-77
2021/09/28 00:29:33;;;;;;;9.20;5.43;;;;;;;15.46;66.96;100331.44;6097682;23;20097;-77
2021/09/28 00:32:00;;;;;;;9.00;4.90;;;;;;;15.45;67.12;100327.09;6097597;23;20028;-77
2021/09/28 00:34:34;;;;;;;8.65;5.40;;;;;;;15.43;67.46;100331.66;6098048;23;20090;-77
2021/09/28 00:37:01;;;;;;;12.07;5.80;;;;;;;15.46;66.97;100330.59;6097914;23;20029;-77
2021/09/28 00:39:31;;;;;;;11.88;5.07;;;;;;;15.43;67.46;100326.34;6097520;23;20030;-77
2021/09/28 00:41:58;;;;;;;5.97;4.78;;;;;;;15.45;66.84;100320.94;6097815;23;20030;-77
2021/09/28 00:44:45;;;;;;;10.98;5.32;;;;;;;15.39;67.58;100324.84;6097337;23;20327;-77
2021/09/28 00:47:13;;;;;;;7.30;5.18;;;;;;;15.44;66.91;100338.66;6097806;23;20113;-77
2021/09/28 00:49:46;;;;;;;7.72;5.57;;;;;;;15.41;67.28;100327.41;6097798;23;20028;-77
2021/09/28 00:52:17;;;;;;;10.93;5.68;;;;;;;15.41;67.06;100338.88;6097820;23;20093;-77
2021/09/28 00:54:49;;;;;;;6.95;5.07;;;;;;;15.40;67.25;100331.84;6097170;23;20023;-77
2021/09/28 00:57:16;;;;;;;7.78;4.82;;;;;;;15.41;66.80;100327.41;6097637;23;20097;-77
2021/09/28 00:59:43;;;;;;;7.28;5.10;;;;;;;15.39;66.64;100327.50;6098311;23;20445;-77
2021/09/28 01:02:12;;;;;;;10.20;5.95;;;;;;;15.38;66.87;100328.47;6097582;23;20101;-78
2021/09/28 01:04:40;;;;;;;7.22;4.88;;;;;;;15.39;66.71;100338.13;6097127;23;20023;-77
2021/09/28 01:07:13;;;;;;;7.05;4.70;;;;;;;15.36;67.24;100333.00;6097879;23;20443;-77
2021/09/28 01:09:40;;;;;;;;;;;;;;;15.38;66.99;100344.38;6097560;23;20022;-78
2021/09/28 01:12:09;;;;;;;10.55;5.18;;;;;;;15.42;66.35;100347.66;6097245;23;20005;-77
2021/09/28 01:14:37;;;;;;;9.80;5.03;;;;;;;15.40;66.61;100345.13;6097197;23;20034;-77
2021/09/28 01:17:18;;;;;;;8.88;5.32;;;;;;;15.34;67.08;100346.41;6097080;23;20029;-77
2021/09/28 01:19:46;;;;;;;9.77;5.57;;;;;;;15.38;66.63;100349.69;6097211;23;20070;-77
2021/09/28 01:22:15;;;;;;;7.38;4.57;;;;;;;15.36;66.85;100349.78;6097947;23;20093;-77
2021/09/28 01:24:44;;;;;;;9.88;5.15;;;;;;;15.37;66.75;100350.66;6097106;23;20101;-77
2021/09/28 01:27:16;;;;;;;11.23;4.93;;;;;;;15.35;67.06;100350.75;6097323;23;20031;-77
2021/09/28 01:29:43;;;;;;;10.55;4.82;;;;;;;15.37;66.69;100351.47;6097021;23;20105;-77
2021/09/28 01:32:10;;;;;;;7.75;5.03;;;;;;;15.38;66.62;100352.34;6098753;23;20036;-77
2021/09/28 01:34:38;;;;;;;9.35;4.57;;;;;;;15.37;66.74;100354.13;6098192;23;20105;-77
2021/09/28 01:37:05;;;;;;;8.00;4.32;;;;;;;15.39;66.45;100354.03;6097077;23;20022;-77
2021/09/28 01:39:34;;;;;;;13.70;4.35;;;;;;;15.37;66.76;100353.31;6097741;23;20400;-77
2021/09/28 01:42:01;;;;;;;10.55;4.63;;;;;;;15.38;66.48;100355.00;6096899;23;20033;-77
2021/09/28 01:44:34;;;;;;;10.30;5.10;;;;;;;15.37;66.88;100353.31;6097092;23;20097;-78
2021/09/28 01:47:02;;;;;;;9.35;4.55;;;;;;;15.39;66.40;100351.38;6097305;23;20461;-78
2021/09/28 01:49:47;;;;;;;8.43;4.40;;;;;;;15.36;66.88;100349.78;6097419;23;20105;-77
2021/09/28 01:52:14;;;;;;;8.00;5.28;;;;;;;15.40;66.07;100349.59;6097122;23;20094;-77
2021/09/28 01:54:40;;;;;;;12.80;5.50;;;;;;;15.38;66.25;100349.69;6096428;23;20022;-78
2021/09/28 01:57:07;;;;;;;9.30;5.30;;;;;;;15.36;66.34;100357.75;6097426;23;20026;-78
2021/09/28 01:59:34;;;;;;;8.90;5.22;;;;;;;15.34;66.19;100348.19;6096644;23;20097;-77
2021/09/28 02:02:00;;;;;;;8.88;5.90;;;;;;;15.34;66.10;100356.16;6097171;23;20407;-77
2021/09/28 02:04:27;;;;;;;9.57;5.78;;;;;;;15.32;66.28;100350.09;6096502;23;20068;-77
2021/09/28 02:07:12;;;;;;;9.30;5.70;;;;;;;15.24;66.84;100351.47;6096934;23;20027;-77
2021/09/28 02:09:38;;;;;;;9.65;5.93;;;;;;;15.27;66.14;100362.81;6097224;23;20452;-77
2021/09/28 02:12:06;;;;;;;7.93;5.30;;;;;;;15.23;66.17;100355.09;6096533;23;20102;-77
2021/09/28 02:14:33;;;;;;;9.50;5.55;;;;;;;15.20;66.40;100363.25;6096491;23;20037;-77
2021/09/28 02:17:00;;;;;;;8.60;5.57;;;;;;;15.18;66.37;100361.66;6097096;23;20331;-77
2021/09/28 02:19:29;;;;;;;12.90;5.88;;;;;;;15.14;66.48;100366.28;6097283;23;20037;-77
2021/09/28 02:21:56;;;;;;;8.80;6.18;;;;;;;15.11;66.48;100362.03;6096502;23;20104;-77
2021/09/28 02:24:26;;;;;;;14.05;6.03;;;;;;;15.05;66.90;100361.59;6096169;23;20026;-77
2021/09/28 02:26:54;;;;;;;13.75;6.10;;;;;;;15.03;66.64;100367.00;6096531;23;20109;-77
2021/09/28 02:29:29;;;;;;;9.15;6.03;;;;;;;14.96;67.24;100363.91;6096677;23;20345;-77
2021/09/28 02:31:56;;;;;;;11.60;6.28;;;;;;;14.97;66.62;100364.75;6096572;23;20066;-77
2021/09/28 02:34:25;;;;;;;10.88;6.25;;;;;;;14.93;66.98;100366.78;6096489;23;20040;-77
2021/09/28 02:36:52;;;;;;;11.30;5.95;;;;;;;14.92;66.85;100365.06;6096515;23;20027;-77
2021/09/28 02:39:18;;;;;;;10.73;6.40;;;;;;;14.91;66.76;100368.66;6096903;23;20514;-77
2021/09/28 02:41:45;;;;;;;11.15;6.22;;;;;;;14.89;66.88;100364.41;6096338;23;20028;-77
2021/09/28 02:44:16;;;;;;;11.63;6.15;;;;;;;14.85;67.15;100367.25;6096294;23;20030;-77
2021/09/28 02:46:43;;;;;;;10.23;6.38;;;;;;;14.84;66.79;100365.56;6096729;23;20061;-77
2021/09/28 02:49:10;;;;;;;13.68;6.57;;;;;;;14.83;66.91;100368.31;6096414;23;20446;-77
2021/09/28 02:51:37;;;;;;;11.93;6.95;;;;;;;14.79;66.99;100372.97;6097042;23;20029;-77
2021/09/28 02:54:03;;;;;;;12.85;6.82;;;;;;;14.77;67.07;100380.16;6096818;23;20028;-77
2021/09/28 02:56:30;;;;;;;13.25;6.85;;;;;;;14.77;67.19;100384.63;6095879;23;20029;-77
2021/09/28 02:59:00;;;;;;;11.18;6.68;;;;;;;14.72;67.68;100395.47;6096324;23;20026;-77
2021/09/28 03:01:26;;;;;;;10.70;6.38;;;;;;;14.71;67.29;100384.03;6095451;23;20023;-77
2021/09/28 03:03:53;;;;;;;11.10;7.28;;;;;;;14.69;67.23;100391.22;6095383;23;20026;-77
2021/09/28 03:06:23;;;;;;;11.38;6.60;;;;;;;14.65;67.54;100384.41;6096397;23;20018;-77
2021/09/28 03:08:50;;;;;;;13.52;6.93;;;;;;;14.65;67.27;100386.25;6096810;23;20061;-77
2021/09/28 03:11:16;;;;;;;14.20;7.28;;;;;;;14.62;67.31;100386.44;6096674;23;20018;-77
2021/09/28 03:13:43;;;;;;;12.38;6.70;;;;;;;14.60;67.45;100394.47;6096294;23;20045;-77
2021/09/28 03:16:33;;;;;;;13.57;7.25;;;;;;;14.52;68.52;100389.66;6096137;23;20022;-77
2021/09/28 03:19:00;;;;;;;11.95;7.15;;;;;;;14.56;67.50;100382.38;6097344;23;20054;-77
2021/09/28 03:21:29;;;;;;;13.02;7.85;;;;;;;14.51;68.04;100385.31;6095907;23;20101;-77
2021/09/28 03:23:56;;;;;;;14.77;7.32;;;;;;;14.52;67.54;100394.09;6096387;23;20105;-77
2021/09/28 03:26:29;;;;;;;13.00;7.82;;;;;;;14.46;68.33;100390.91;6096447;23;20327;-77
2021/09/28 03:28:56;;;;;;;11.80;7.10;;;;;;;14.47;67.78;100394.41;6095997;23;20105;-77
2021/09/28 03:31:30;;;;;;;11.43;6.88;;;;;;;14.43;68.41;100392.91;6096870;23;20403;-77
2021/09/28 03:33:56;;;;;;;14.23;7.63;;;;;;;14.42;67.73;100394.69;6095657;23;20037;-77
2021/09/28 03:36:23;;;;;;;11.55;7.88;;;;;;;14.41;67.74;100390.34;6096381;23;20106;-77
2021/09/28 03:38:50;;;;;;;10.07;7.32;;;;;;;14.40;67.82;100390.44;6095937;23;20030;-77
2021/09/28 03:41:17;;;;;;;22.48;7.60;;;;;;;14.38;67.69;100387.88;6096521;23;20446;-77
2021/09/28 03:43:43;;;;;;;12.77;7.38;;;;;;;14.37;67.82;100391.50;6096128;23;20338;-77
2021/09/28 03:46:12;;;;;;;16.13;7.72;;;;;;;14.33;68.17;100393.47;6096185;23;20341;-77
2021/09/28 03:48:39;;;;;;;12.63;7.45;;;;;;;14.32;67.94;100402.34;6095702;23;20082;-77
2021/09/28 03:51:07;;;;;;;14.43;8.25;;;;;;;14.31;68.00;100405.09;6096200;23;20022;-77
2021/09/28 03:53:33;;;;;;;13.77;7.50;;;;;;;14.30;68.07;100400.75;6096166;23;20341;-77
2021/09/28 03:56:01;;;;;;;12.35;7.60;;;;;;;14.27;68.29;100411.53;6095591;23;20029;-77
2021/09/28 03:58:28;;;;;;;14.85;7.65;;;;;;;14.27;68.03;100399.16;6095754;23;20105;-77
2021/09/28 04:00:55;;;;;;;15.30;8.50;;;;;;;14.25;68.14;100405.50;6096229;23;20468;-77
2021/09/28 04:03:23;;;;;;;12.65;8.05;;;;;;;14.23;68.09;100408.22;6105001;23;20026;-77
2021/09/28 04:05:56;;;;;;;14.50;7.97;;;;;;;14.19;68.87;100412.88;6095434;23;20499;-77
2021/09/28 04:08:23;;;;;;;14.38;7.93;;;;;;;14.22;68.33;100417.13;6095550;23;20402;-77
2021/09/28 04:10:54;;;;;;;12.98;7.50;;;;;;;14.19;68.58;100417.31;6095420;23;20023;-77
2021/09/28 04:13:20;;;;;;;11.38;7.45;;;;;;;14.20;68.19;100424.31;6095577;23;20031;-77
2021/09/28 04:15:52;;;;;;;13.90;7.50;;;;;;;14.17;68.44;100433.28;6095356;23;20033;-77
2021/09/28 04:18:19;;;;;;;14.35;7.43;;;;;;;14.18;68.29;100423.56;6096034;23;20429;-77
2021/09/28 04:20:47;;;;;;;14.75;7.53;;;;;;;14.15;68.33;100419.31;6095378;23;20022;-77
2021/09/28 04:23:14;;;;;;;12.25;7.97;;;;;;;14.15;68.21;100423.75;6096052;23;20058;-77
2021/09/28 04:25:50;;;;;;;14.45;8.15;;;;;;;14.11;69.05;100427.50;6097872;23;20022;-77
2021/09/28 04:28:17;;;;;;;15.52;8.48;;;;;;;14.12;68.29;100424.78;6095755;23;20023;-77
2021/09/28 04:31:26;;;;;;;16.00;9.02;;;;;;;14.06;68.92;100428.66;6096537;23;20104;-77
2021/09/28 04:33:53;;;;;;;12.95;8.35;;;;;;;14.10;68.00;100431.97;6095686;23;20026;-78
2021/09/28 04:36:22;;;;;;;17.13;9.23;;;;;;;14.06;68.23;100428.66;6095627;23;20018;-77
2021/09/28 04:38:49;;;;;;;13.43;9.57;;;;;;;14.04;67.97;100438.50;6095778;23;20105;-77
2021/09/28 04:41:17;;;;;;;13.25;9.70;;;;;;;14.02;68.18;100440.38;6096281;23;20023;-77
2021/09/28 04:43:52;;;;;;;14.38;10.20;;;;;;;13.97;69.21;100444.25;6096281;23;20381;-77
2021/09/28 04:46:19;;;;;;;17.17;10.63;;;;;;;13.97;68.06;100446.91;6096056;23;20045;-77
2021/09/28 04:48:57;;;;;;;17.40;10.45;;;;;;;13.89;69.01;100442.91;6095592;23;20026;-77
2021/09/28 04:51:24;;;;;;;19.67;10.55;;;;;;;13.89;68.45;100448.22;6095804;23;20106;-77
2021/09/28 04:53:51;;;;;;;19.73;10.55;;;;;;;13.86;68.31;100448.38;6095960;23;20106;-77
2021/09/28 04:56:18;;;;;;;15.52;9.05;;;;;;;13.83;68.43;100451.22;6097122;23;20029;-79
2021/09/28 04:58:51;;;;;;;17.58;8.68;;;;;;;13.77;69.28;100460.38;6097515;23;20105;-79
2021/09/28 05:01:18;;;;;;;16.92;8.15;;;;;;;13.76;68.42;100450.72;6097606;23;20029;-79
2021/09/28 05:03:45;;;;;;;13.07;8.00;;;;;;;13.76;68.61;100460.47;6097098;23;20038;-77
2021/09/28 05:06:13;;;;;;;13.95;8.80;;;;;;;13.74;68.67;100470.28;6097794;23;20026;-77
2021/09/28 05:08:44;;;;;;;11.75;7.63;;;;;;;13.71;69.32;100468.66;6097328;23;20073;-77
2021/09/28 05:11:12;;;;;;;15.75;9.48;;;;;;;13.73;68.62;100465.94;6097195;23;20104;-77
2021/09/28 05:13:40;;;;;;;13.10;8.63;;;;;;;13.72;68.63;100464.25;6097920;23;20033;-77
2021/09/28 05:16:08;;;;;;;11.85;7.95;;;;;;;13.68;68.82;100468.84;6099335;23;20019;-77
2021/09/28 05:18:35;;;;;;;15.82;8.35;;;;;;;13.67;68.70;100468.00;6097595;23;20101;-77
2021/09/28 05:21:14;;;;;;;14.73;8.48;;;;;;;13.61;69.44;100476.28;6097161;23;20102;-77
2021/09/28 05:23:46;;;;;;;13.77;8.65;;;;;;;13.64;68.76;100476.13;6097076;23;20030;-77
2021/09/28 05:26:13;;;;;;;16.08;9.05;;;;;;;13.62;68.78;100475.38;6097258;23;20098;-77
2021/09/28 05:29:01;;;;;;;20.02;8.48;;;;;;;13.56;69.49;100470.41;6097360;23;20037;-77
2021/09/28 05:31:29;;;;;;;13.98;8.40;;;;;;;13.58;68.73;100473.84;6097226;23;20018;-77
2021/09/28 05:33:56;;;;;;;15.27;9.20;;;;;;;13.57;68.72;100476.56;6097203;23;20026;-77
2021/09/28 05:36:23;;;;;;;13.98;8.27;;;;;;;13.56;68.73;100481.00;6097875;23;20101;-78
2021/09/28 05:38:49;;;;;;;16.83;8.07;;;;;;;13.54;68.89;100482.88;6096864;23;20022;-79
2021/09/28 05:41:24;;;;;;;15.27;7.95;;;;;;;13.50;69.50;100482.19;6097034;23;20106;-78
2021/09/28 05:43:52;;;;;;;13.18;8.25;;;;;;;13.53;69.10;100483.84;6096831;23;20105;-78
2021/09/28 05:46:20;;;;;;;14.80;8.65;;;;;;;13.50;69.39;100492.78;6096865;23;20029;-78
2021/09/28 05:48:47;;;;;;;17.55;8.18;;;;;;;13.51;69.09;100488.34;6097419;23;20081;-78
2021/09/28 05:51:19;;;;;;;14.07;8.73;;;;;;;13.49;69.47;100490.25;6096820;23;20023;-78
2021/09/28 05:54:02;;;;;;;15.15;7.70;;;;;;;13.47;69.81;100495.59;6096808;23;20022;-80
2021/09/28 05:56:29;;;;;;;16.48;8.77;;;;;;;13.50;68.90;100495.41;6097131;23;20414;-81
2021/09/28 05:58:56;;;;;;;11.43;7.55;;;;;;;13.48;68.97;100491.16;6096783;23;20022;-81
2021/09/28 06:01:55;;;;;;;12.43;7.68;;;;;;;13.45;69.88;100493.97;6097176;23;20026;-81
2021/09/28 06:04:37;;;;;;;12.20;8.27;;;;;;;13.44;70.02;100501.03;6096501;23;20026;-81
2021/09/28 06:07:04;;;;;;;14.18;7.47;;;;;;;13.49;69.28;100508.75;6096697;23;20025;-80
2021/09/28 06:09:35;;;;;;;16.63;8.15;;;;;;;13.47;69.29;100506.16;6096742;23;20029;-81
2021/09/28 06:12:28;;;;;;;19.50;7.68;;;;;;;13.43;70.09;100518.69;6096653;23;20073;-81
2021/09/28 06:14:54;;;;;;;18.48;7.63;;;;;;;13.48;69.19;100518.47;6096642;23;20024;-81
2021/09/28 06:17:21;;;;;;;14.38;7.50;;;;;;;13.48;69.39;100522.91;6096857;23;20022;-81
2021/09/28 06:20:08;;;;;;;15.85;8.05;;;;;;;13.43;70.28;100526.63;6096693;23;20354;-81
2021/09/28 06:22:36;;;;;;;13.60;7.50;;;;;;;13.48;69.37;100528.19;6096637;23;20065;-81
2021/09/28 06:25:03;;;;;;;13.73;7.35;;;;;;;13.48;69.55;100522.91;6096328;23;20037;-80
2021/09/28 06:27:39;;;;;;;12.07;6.78;;;;;;;13.45;70.03;100523.06;6096910;23;20022;-80
2021/09/28 06:30:06;;;;;;;16.00;7.15;;;;;;;13.49;69.46;100524.63;6096554;23;20023;-81
2021/09/28 06:32:33;;;;;;;9.73;6.03;;;;;;;13.49;69.55;100524.63;6096596;23;20354;-81
2021/09/28 06:35:00;;;;;;;15.70;6.38;;;;;;;13.48;69.79;100529.06;6096312;23;20033;-81
2021/09/28 06:37:27;;;;;;;14.73;6.20;;;;;;;13.50;69.69;100531.63;6096816;23;20089;-81
2021/09/28 06:39:53;;;;;;;14.65;7.13;;;;;;;13.51;69.84;100533.31;6097785;23;20029;-81
2021/09/28 06:46:01;;;;;;;22.38;6.45;;;;;;;13.55;69.67;100540.13;6097723;23;20021;-81
2021/09/28 06:48:34;;;;;;;11.68;6.70;;;;;;;13.53;70.36;100532.28;6096568;23;20394;-81
2021/09/28 06:51:01;;;;;;;10.27;5.97;;;;;;;13.57;69.88;100527.66;6097673;23;20108;-81
2021/09/28 06:53:45;;;;;;;11.70;6.28;;;;;;;13.54;71.10;100538.44;6096239;23;20027;-81
2021/09/28 06:56:13;;;;;;;14.82;6.20;;;;;;;13.59;70.01;100535.50;6096611;23;20399;-81
2021/09/28 06:58:39;;;;;;;10.95;5.88;;;;;;;13.60;69.97;100539.88;6096667;23;20048;-81
2021/09/28 07:01:09;;;;;;;11.98;5.93;;;;;;;13.60;70.21;100538.06;6096139;23;20023;-81
2021/09/28 07:04:04;;;;;;;14.23;6.32;;;;;;;13.58;71.03;100550.56;6096065;23;20069;-81
2021/09/28 07:06:32;;;;;;;14.27;6.72;;;;;;;13.65;70.00;100543.94;6096552;23;20022;-81
2021/09/28 07:09:00;;;;;;;9.73;6.13;;;;;;;13.68;70.32;100540.28;6096100;23;20028;-81
2021/09/28 07:11:48;;;;;;;14.90;7.20;;;;;;;13.67;70.93;100544.72;6096560;23;20423;-81
2021/09/28 07:14:15;;;;;;;11.65;6.55;;;;;;;13.76;70.30;100545.13;6096361;23;20368;-81
2021/09/28 07:16:57;;;;;;;10.32;6.60;;;;;;;13.77;70.68;100541.53;6096152;23;20407;-81
2021/09/28 07:19:24;;;;;;;16.58;6.80;;;;;;;13.85;70.11;100538.44;6096294;23;20026;-81
2021/09/28 07:21:51;;;;;;;10.02;6.07;;;;;;;13.87;70.05;100536.56;6096367;23;20026;-81
2021/09/28 07:24:34;;;;;;;13.98;6.15;;;;;;;13.85;70.74;100541.97;6095893;23;20109;-81
2021/09/28 07:27:00;;;;;;;10.98;5.97;;;;;;;13.91;69.80;100541.59;6096481;23;20027;-81
2021/09/28 07:29:52;;;;;;;18.05;6.82;;;;;;;13.89;70.66;100546.13;6097568;23;20037;-81
2021/09/28 07:32:21;;;;;;;17.20;7.30;;;;;;;13.96;69.84;100538.69;6096362;23;20105;-81
2021/09/28 07:34:48;;;;;;;12.13;6.97;;;;;;;13.99;69.81;100540.28;6095755;23;20097;-81
2021/09/28 07:37:29;;;;;;;14.60;7.00;;;;;;;13.98;70.05;100544.72;6097234;23;20019;-81
2021/09/28 07:39:57;;;;;;;11.90;5.93;;;;;;;14.02;69.73;100543.59;6095989;23;20036;-81
2021/09/28 07:42:25;;;;;;;12.38;5.97;;;;;;;14.04;69.78;100547.03;6095924;23;20039;-81
2021/09/28 07:45:21;;;;;;;15.07;7.20;;;;;;;14.02;70.36;100540.94;6096134;23;20033;-81
2021/09/28 07:47:50;;;;;;;14.65;6.85;;;;;;;14.09;69.71;100545.91;6096094;23;20033;-81
2021/09/28 07:50:29;;;;;;;13.55;6.38;;;;;;;14.07;70.25;100540.69;6095682;23;20518;-81
2021/09/28 07:52:57;;;;;;;15.57;7.60;;;;;;;14.14;69.63;100543.84;6095842;23;20109;-81
2021/09/28 07:55:25;;;;;;;14.23;7.65;;;;;;;14.15;69.66;100548.16;6095884;23;20027;-81
2021/09/28 07:58:13;;;;;;;13.50;8.00;;;;;;;14.15;70.31;100553.47;6097606;23;20414;-81
2021/09/28 08:00:42;;;;;;;13.40;7.38;;;;;;;14.22;69.49;100553.94;6096261;23;20521;-81
2021/09/28 08:03:09;;;;;;;15.45;8.25;;;;;;;14.24;69.54;100552.09;6096292;23;20057;-81
2021/09/28 08:05:40;;;;;;;16.08;8.38;;;;;;;14.24;69.64;100547.63;6095901;23;20073;-81
2021/09/28 08:08:07;;;;;;;12.77;7.93;;;;;;;14.26;69.44;100552.81;6095766;23;20029;-81
2021/09/28 08:10:33;;;;;;;17.17;8.65;;;;;;;14.28;69.56;100549.16;6096201;23;20026;-81
2021/09/28 08:13:10;;;;;;;16.75;7.75;;;;;;;14.28;70.10;100553.59;6095833;23;20026;-81
2021/09/28 08:15:37;;;;;;;19.50;7.90;;;;;;;14.34;69.52;100550.56;6095563;23;20030;-80
2021/09/28 08:18:36;;;;;;;15.18;8.20;;;;;;;14.32;70.17;100555.97;6096970;23;20061;-81
2021/09/28 08:21:03;;;;;;;17.17;8.00;;;;;;;14.41;69.52;100556.34;6095837;23;20031;-81
2021/09/28 08:24:02;;;;;;;16.63;8.48;;;;;;;14.40;70.17;100554.66;6095876;23;20037;-81
2021/09/28 08:29:11;;;;;;;;;;;;;;;14.53;70.05;100554.75;6099492;23;20082;-81
2021/09/28 08:31:44;;;;;;;14.98;7.60;;;;;;;14.59;69.65;100563.19;6097572;23;20000;-81
2021/09/28 08:34:22;;;;;;;11.48;8.25;;;;;;;14.63;69.78;100560.34;6097691;23;20022;-81
2021/09/28 08:37:09;;;;;;;15.80;9.45;;;;;;;14.69;69.72;100562.63;6098893;23;20030;-79
2021/09/28 08:39:56;;;;;;;16.73;9.52;;;;;;;14.68;70.16;100567.06;6097728;23;20022;-81
2021/09/28 08:42:24;;;;;;;21.02;10.18;;;;;;;14.77;69.51;100568.31;6097586;23;20450;-81
2021/09/28 08:44:55;;;;;;;17.08;10.80;;;;;;;14.80;69.58;100562.84;6097570;23;20023;-81
2021/09/28 08:47:34;;;;;;;19.13;11.48;;;;;;;14.83;69.66;100561.78;6097741;23;20093;-81
2021/09/28 08:50:24;;;;;;;14.77;9.90;;;;;;;14.86;69.61;100561.59;6097394;23;20022;-81
2021/09/28 08:52:51;;;;;;;18.08;9.77;;;;;;;14.95;69.57;100574.28;6098453;23;20397;-81
2021/09/28 08:55:23;;;;;;;18.17;10.50;;;;;;;15.00;69.77;100571.38;6097751;23;20036;-81
2021/09/28 08:57:51;;;;;;;21.30;10.65;;;;;;;15.07;69.68;100571.81;6097441;23;20018;-81
2021/09/28 09:03:45;;;;;;;18.95;9.60;;;;;;;15.25;69.21;100577.75;6098476;23;20033;-81
2021/09/28 09:06:32;;;;;;;21.90;10.73;;;;;;;15.28;69.29;100563.47;6096973;23;20406;-81
2021/09/28 09:09:02;;;;;;;17.77;10.35;;;;;;;15.34;69.35;100569.22;6097990;23;20127;-80
2021/09/28 09:14:52;;;;;;;21.67;11.65;;;;;;;15.50;69.18;100571.72;6098319;23;20037;-81
2021/09/28 09:17:36;;;;;;;18.65;11.45;;;;;;;15.49;69.24;100559.44;6097005;23;20022;-81
2021/09/28 09:20:47;;;;;;;16.23;11.07;;;;;;;15.54;69.32;100563.56;6098992;23;20026;-81
2021/09/28 09:27:06;;;;;;;18.05;8.57;;;;;;;15.70;69.30;100572.22;6038853;23;20358;-81
2021/09/28 09:30:21;;;;;;;15.20;8.32;;;;;;;15.75;69.49;100567.44;6021423;23;20054;-81
2021/09/28 09:32:48;;;;;;;14.25;8.65;;;;;;;15.88;69.26;100559.53;6097529;23;20109;-81
2021/09/28 09:35:33;;;;;;;17.35;8.13;;;;;;;15.95;69.85;100551.19;6097262;23;20350;-81
2021/09/28 09:38:11;;;;;;;17.15;8.52;;;;;;;16.06;69.29;100550.47;6098502;23;20058;-81
2021/09/28 09:40:40;;;;;;;14.95;7.97;;;;;;;16.19;69.05;100540.75;6097149;23;20022;-81
2021/09/28 09:43:12;;;;;;;18.55;8.80;;;;;;;16.27;69.22;100551.66;6097356;23;20089;-81
2021/09/28 09:45:39;;;;;;;15.18;7.30;;;;;;;16.39;69.27;100557.97;6096788;23;20097;-81
2021/09/28 09:48:32;;;;;;;14.65;7.15;;;;;;;16.46;68.78;100553.06;6096923;23;20033;-80
2021/09/28 09:51:36;;;;;;;12.45;7.22;;;;;;;16.60;68.57;100553.91;6097042;23;20031;-81
2021/09/28 09:54:16;;;;;;;10.32;6.50;;;;;;;16.71;68.45;100555.81;6081816;23;20478;-81
2021/09/28 09:56:51;;;;;;;14.07;7.57;;;;;;;16.83;68.92;100551.44;6096835;23;20058;-81
2021/09/28 09:59:23;;;;;;;15.40;6.65;;;;;;;16.94;68.75;100551.53;6096883;23;20027;-81
2021/09/28 10:01:55;;;;;;;16.88;5.25;;;;;;;17.05;67.91;100551.63;6096896;23;20035;-81
2021/09/28 10:04:23;;;;;;;13.32;5.40;;;;;;;17.20;68.00;100551.50;6097100;23;20026;-81
2021/09/28 10:07:02;;;;;;;14.05;6.13;;;;;;;17.29;66.54;100556.16;6096787;23;20037;-81
2021/09/28 10:09:35;;;;;;;13.63;4.93;;;;;;;17.44;67.09;100561.31;6097065;23;20053;-81
2021/09/28 10:12:08;;;;;;;17.88;4.75;;;;;;;17.57;66.80;100553.28;6096720;23;20030;-81
2021/09/28 10:14:44;;;;;;;12.75;4.55;;;;;;;17.67;65.80;100546.31;6095480;23;20026;-81
2021/09/28 10:17:19;;;;;;;23.10;5.03;;;;;;;17.81;66.07;100547.09;6096959;23;20433;-81
2021/09/28 10:19:48;;;;;;;11.18;4.05;;;;;;;17.96;66.91;100539.75;6098090;23;20023;-81
2021/09/28 10:22:33;;;;;;;12.40;3.60;;;;;;;18.08;66.75;100538.00;6096682;23;20022;-81
2021/09/28 10:25:22;;;;;;;12.43;4.65;;;;;;;18.26;65.49;100534.88;6096881;23;20450;-81
2021/09/28 10:27:51;;;;;;;12.40;3.80;;;;;;;18.48;66.24;100542.06;6096895;23;20884;-81
2021/09/28 10:30:42;;;;;;;8.88;3.22;;;;;;;18.66;65.50;100537.13;6096370;23;20101;-81
2021/09/28 10:33:13;;;;;;;12.20;3.85;;;;;;;18.88;63.91;100544.25;6096935;23;20390;-81
2021/09/28 10:36:11;;;;;;;8.80;3.65;;;;;;;19.02;63.26;100536.94;6096416;23;20037;-82
2021/09/28 10:38:43;;;;;;;11.05;3.28;;;;;;;19.19;63.22;100542.78;6088433;23;20047;-81
2021/09/28 10:41:28;;;;;;;10.15;3.50;;;;;;;19.26;63.05;100544.00;6097984;23;20033;-81
2021/09/28 10:44:47;;;;;;;10.07;3.10;;;;;;;19.36;62.22;100536.09;6096729;23;20407;-81
2021/09/28 10:47:44;;;;;;;9.48;2.95;;;;;;;19.50;62.89;100541.13;6096206;23;20027;-81
2021/09/28 10:50:28;;;;;;;9.48;3.25;;;;;;;19.61;62.17;100537.56;6096600;23;20342;-81
2021/09/28 10:53:15;;;;;;;12.98;3.45;;;;;;;19.73;62.75;100529.53;6096131;23;20033;-81
2021/09/28 10:56:14;;;;;;;9.02;2.88;;;;;;;19.78;61.88;100533.47;6097604;23;20105;-81
2021/09/28 10:58:51;;;;;;;11.40;2.83;;;;;;;19.89;60.76;100523.72;6091063;23;20101;-81
2021/09/28 11:01:19;;;;;;;8.65;2.90;;;;;;;20.01;62.08;100516.53;6096250;23;20061;-81
2021/09/28 11:03:55;;;;;;;12.02;3.05;;;;;;;20.13;62.43;100518.16;6096309;23;20450;-81
2021/09/28 11:09:48;;;;;;;9.57;2.72;;;;;;;20.69;63.65;100521.38;6097598;23;20105;-81
2021/09/28 11:12:17;;;;;;;11.93;3.25;;;;;;;21.03;62.66;100514.03;6096276;23;20105;-81
2021/09/28 11:15:23;;;;;;;10.45;2.70;;;;;;;21.37;59.54;100510.97;6096433;23;20411;-81
2021/09/28 11:17:50;;;;;;;8.15;1.83;;;;;;;21.77;59.98;100511.00;6095433;23;20026;-81
2021/09/28 11:20:46;;;;;;;9.50;2.28;;;;;;;21.97;57.88;100507.31;6095875;23;20342;-81
2021/09/28 11:23:13;;;;;;;9.60;2.47;;;;;;;22.23;58.21;100501.34;6095764;23;20033;-81
2021/09/28 11:25:53;;;;;;;11.93;2.65;;;;;;;22.42;56.43;100510.31;6097642;23;20026;-81
2021/09/28 11:28:24;;;;;;;8.98;2.15;;;;;;;22.67;57.32;100505.28;6096301;23;20350;-81
2021/09/28 11:30:58;;;;;;;7.90;2.33;;;;;;;22.91;54.67;100507.44;6096097;23;20109;-81
2021/09/28 11:34:11;;;;;;;7.47;2.45;;;;;;;23.17;54.73;100500.47;6095994;23;20101;-81
2021/09/28 11:36:41;;;;;;;9.38;2.15;;;;;;;23.52;53.88;100501.50;6095931;23;20018;-81
2021/09/28 11:39:14;;;;;;;8.05;1.75;;;;;;;23.72;52.39;100498.66;6096147;23;20028;-82
2021/09/28 11:41:54;;;;;;;6.53;2.10;;;;;;;23.94;52.70;100483.03;5957923;24;20376;-82
2021/09/28 11:44:21;;;;;;;10.15;1.90;;;;;;;24.25;53.80;100493.31;5958183;24;20449;-82
2021/09/28 11:46:49;;;;;;;7.47;2.13;;;;;;;24.50;52.38;100489.91;5958118;24;20085;-81
2021/09/28 11:49:43;;;;;;;7.45;1.92;;;;;;;24.65;51.28;100492.84;5957985;24;20032;-82
2021/09/28 11:52:11;;;;;;;8.13;2.00;;;;;;;24.87;50.69;100483.38;5980783;24;20567;-82
2021/09/28 11:54:51;;;;;;;5.18;1.90;;;;;;;24.99;50.72;100483.91;5958105;24;20537;-82
2021/09/28 11:57:19;;;;;;;7.68;2.17;;;;;;;25.22;50.80;100486.81;5957818;24;20028;-82
2021/09/28 11:59:46;;;;;;;9.00;2.10;;;;;;;25.42;50.06;100475.69;6020310;23;20028;-81
2021/09/28 12:02:22;;;;;;;6.47;2.00;;;;;;;25.54;46.90;100472.66;6095797;23;20036;-82
2021/09/28 12:08:31;;;;;;;11.90;2.45;;;;;;;25.80;47.83;100479.75;6097244;23;20095;-83
2021/09/28 12:11:05;;;;;;;6.50;2.40;;;;;;;25.95;47.02;100474.53;6096161;23;20080;-82